createdAt,value
2019-02-11T00:01:01.522Z,51.40
2019-02-11T00:03:28.994Z,51.40
2019-02-11T00:05:56.454Z,51.40
2019-02-11T00:08:23.931Z,51.30
2019-02-11T00:10:51.394Z,51.30
2019-02-11T00:13:18.881Z,51.30
2019-02-11T00:15:46.360Z,51.90
2019-02-11T00:18:13.829Z,51.30
2019-02-11T00:20:41.286Z,51.20
2019-02-11T00:23:08.760Z,51.30
2019-02-11T00:25:36.556Z,51.30
2019-02-11T00:28:04.024Z,51.30
2019-02-11T00:30:31.490Z,51.20
2019-02-11T00:32:59.086Z,51.40
2019-02-11T00:35:26.678Z,51.60
2019-02-11T00:37:54.154Z,51.50
2019-02-11T00:40:21.610Z,51.50
2019-02-11T00:42:49.077Z,51.30
2019-02-11T00:45:16.537Z,51.30
2019-02-11T00:47:44.016Z,51.30
2019-02-11T00:50:11.485Z,51.30
2019-02-11T00:52:39.038Z,51.40
2019-02-11T00:55:06.497Z,51.40
2019-02-11T00:57:34.002Z,51.30
2019-02-11T01:00:01.461Z,51.10
2019-02-11T01:02:28.921Z,51.20
2019-02-11T01:04:56.395Z,51.30
2019-02-11T01:07:23.859Z,51.30
2019-02-11T01:09:51.320Z,51.30
2019-02-11T01:12:18.790Z,51.40
2019-02-11T01:14:46.276Z,51.40
2019-02-11T01:17:13.749Z,51.40
2019-02-11T01:19:41.222Z,51.40
2019-02-11T01:22:08.685Z,51.40
2019-02-11T01:24:36.154Z,51.40
2019-02-11T01:27:03.613Z,51.40
2019-02-11T01:29:31.101Z,51.30
2019-02-11T01:31:58.567Z,51.30
2019-02-11T01:34:26.032Z,51.40
2019-02-11T01:36:53.502Z,51.20
2019-02-11T01:39:20.976Z,51.20
2019-02-11T01:41:48.458Z,51.20
2019-02-11T01:44:15.921Z,51.20
2019-02-11T01:46:43.381Z,51.40
2019-02-11T01:49:10.841Z,51.40
2019-02-11T01:51:38.308Z,51.40
2019-02-11T01:54:05.781Z,51.40
2019-02-11T01:56:33.260Z,51.30
2019-02-11T01:59:00.734Z,51.20
2019-02-11T02:01:28.194Z,51.20
2019-02-11T02:03:55.657Z,51.20
2019-02-11T02:06:23.121Z,51.20
2019-02-11T02:08:50.605Z,51.30
2019-02-11T02:11:18.068Z,51.20
2019-02-11T02:13:45.544Z,51.10
2019-02-11T02:16:13.022Z,51.00
2019-02-11T02:18:40.495Z,51.10
2019-02-11T02:21:07.960Z,51.20
2019-02-11T02:23:35.430Z,51.20
2019-02-11T02:26:03.045Z,51.20
2019-02-11T02:28:30.504Z,51.10
2019-02-11T02:30:57.980Z,51.00
2019-02-11T02:33:25.444Z,51.00
2019-02-11T02:35:52.931Z,51.00
2019-02-11T02:38:20.415Z,50.90
2019-02-11T02:40:47.982Z,51.00
2019-02-11T02:43:15.453Z,50.90
2019-02-11T02:45:42.915Z,50.80
2019-02-11T02:48:10.386Z,50.80
2019-02-11T02:50:37.858Z,50.90
2019-02-11T02:53:05.328Z,51.00
2019-02-11T02:55:32.798Z,51.00
2019-02-11T02:58:00.288Z,51.10
2019-02-11T03:00:27.761Z,51.10
2019-02-11T03:02:55.249Z,50.90
2019-02-11T03:05:22.718Z,50.90
2019-02-11T03:07:50.203Z,50.90
2019-02-11T03:10:17.670Z,50.90
2019-02-11T03:12:45.130Z,50.80
2019-02-11T03:15:12.605Z,50.80
2019-02-11T03:17:40.081Z,50.90
2019-02-11T03:20:08.130Z,50.90
2019-02-11T03:22:35.611Z,50.80
2019-02-11T03:25:03.746Z,50.90
2019-02-11T03:27:31.229Z,51.00
2019-02-11T03:29:58.697Z,51.00
2019-02-11T03:32:26.182Z,50.90
2019-02-11T03:34:53.727Z,50.90
2019-02-11T03:37:21.208Z,50.90
2019-02-11T03:39:48.741Z,50.90
2019-02-11T03:42:16.225Z,50.90
2019-02-11T03:44:43.691Z,50.80
2019-02-11T03:47:11.229Z,50.80
2019-02-11T03:49:38.698Z,50.70
2019-02-11T03:52:06.165Z,50.70
2019-02-11T03:54:33.645Z,50.70
2019-02-11T03:57:01.105Z,50.70
2019-02-11T03:59:28.573Z,50.60
2019-02-11T04:01:56.033Z,50.60
2019-02-11T04:04:23.507Z,50.70
2019-02-11T04:06:50.975Z,50.80
2019-02-11T04:09:18.459Z,50.80
2019-02-11T04:11:45.933Z,50.80
2019-02-11T04:14:13.405Z,50.70
2019-02-11T04:16:40.869Z,50.70
2019-02-11T04:19:08.353Z,50.60
2019-02-11T04:21:35.814Z,50.60
2019-02-11T04:24:03.292Z,50.50
2019-02-11T04:26:32.129Z,50.70
2019-02-11T04:28:59.607Z,50.60
2019-02-11T04:31:27.073Z,50.60
2019-02-11T04:33:54.534Z,50.70
2019-02-11T04:36:21.993Z,50.70
2019-02-11T04:38:49.460Z,50.70
2019-02-11T04:41:17.181Z,50.80
2019-02-11T04:43:44.645Z,50.60
2019-02-11T04:46:12.113Z,50.50
2019-02-11T04:48:39.574Z,50.30
2019-02-11T04:51:07.037Z,50.30
2019-02-11T04:53:34.502Z,50.20
2019-02-11T04:56:01.970Z,50.20
2019-02-11T04:58:29.438Z,50.20
2019-02-11T05:00:56.905Z,50.20
2019-02-11T05:03:24.370Z,50.20
2019-02-11T05:05:51.840Z,50.20
2019-02-11T05:08:19.552Z,50.20
2019-02-11T05:10:47.001Z,50.20
2019-02-11T05:13:14.561Z,50.20
2019-02-11T05:15:42.031Z,50.20
2019-02-11T05:18:09.488Z,50.20
2019-02-11T05:20:37.224Z,50.20
2019-02-11T05:23:04.685Z,50.20
2019-02-11T05:25:32.149Z,50.20
2019-02-11T05:27:59.616Z,50.20
2019-02-11T05:30:27.081Z,50.20
2019-02-11T05:32:54.588Z,50.20
2019-02-11T05:35:22.107Z,50.20
2019-02-11T05:37:49.648Z,50.20
2019-02-11T05:40:17.161Z,50.10
2019-02-11T05:42:44.671Z,50.20
2019-02-11T05:45:12.129Z,50.20
2019-02-11T05:47:39.602Z,50.20
2019-02-11T05:50:08.523Z,50.20
2019-02-11T05:52:36.055Z,50.20
2019-02-11T05:55:03.685Z,50.20
2019-02-11T05:57:31.165Z,50.20
2019-02-11T05:59:58.630Z,50.20
2019-02-11T06:02:26.109Z,50.20
2019-02-11T06:04:53.578Z,50.10
2019-02-11T06:07:21.057Z,50.10
2019-02-11T06:09:48.549Z,50.00
2019-02-11T06:12:16.023Z,50.00
2019-02-11T06:14:43.483Z,50.00
2019-02-11T06:17:10.951Z,49.90
2019-02-11T06:19:38.423Z,49.90
2019-02-11T06:22:05.894Z,50.10
2019-02-11T06:24:33.374Z,50.00
2019-02-11T06:27:00.906Z,50.00
2019-02-11T06:29:28.385Z,50.00
2019-02-11T06:31:55.867Z,50.00
2019-02-11T06:34:23.330Z,50.10
2019-02-11T06:36:51.062Z,50.00
2019-02-11T06:39:18.531Z,50.00
2019-02-11T06:41:45.982Z,50.00
2019-02-11T06:44:13.449Z,50.00
2019-02-11T06:46:40.913Z,50.00
2019-02-11T06:49:08.385Z,50.00
2019-02-11T06:51:36.094Z,50.00
2019-02-11T06:54:03.578Z,50.00
2019-02-11T06:56:31.038Z,50.00
2019-02-11T06:58:58.509Z,49.90
2019-02-11T07:01:25.979Z,50.10
2019-02-11T07:03:53.442Z,49.90
2019-02-11T07:06:20.906Z,49.70
2019-02-11T07:08:48.372Z,49.80
2019-02-11T07:11:15.831Z,49.70
2019-02-11T07:13:43.301Z,49.40
2019-02-11T07:16:10.760Z,49.60
2019-02-11T07:18:38.238Z,49.50
2019-02-11T07:21:05.701Z,49.50
2019-02-11T07:23:33.167Z,49.40
2019-02-11T07:26:00.630Z,49.60
2019-02-11T07:28:28.146Z,49.80
2019-02-11T07:30:55.634Z,50.00
2019-02-11T07:33:23.155Z,49.80
2019-02-11T07:35:50.622Z,50.20
2019-02-11T07:38:18.094Z,49.60
2019-02-11T07:40:45.558Z,49.60
2019-02-11T07:43:20.445Z,49.50
2019-02-11T07:45:49.550Z,49.50
2019-02-11T07:48:17.021Z,49.60
2019-02-11T07:50:44.485Z,49.50
2019-02-11T07:53:11.946Z,49.40
2019-02-11T07:55:39.417Z,49.50
2019-02-11T07:58:06.872Z,50.00
2019-02-11T08:00:34.350Z,49.80
2019-02-11T08:03:01.813Z,49.80
2019-02-11T08:05:29.282Z,49.80
2019-02-11T08:07:56.745Z,50.20
2019-02-11T08:10:24.221Z,49.80
2019-02-11T08:12:52.297Z,49.90
2019-02-11T08:15:19.838Z,49.90
2019-02-11T08:17:47.298Z,50.00
2019-02-11T08:20:14.766Z,50.10
2019-02-11T08:22:42.334Z,50.10
2019-02-11T08:25:09.805Z,50.10
2019-02-11T08:27:37.268Z,50.00
2019-02-11T08:30:06.541Z,49.80
2019-02-11T08:32:34.006Z,49.70
2019-02-11T08:35:01.478Z,49.80
2019-02-11T08:37:28.946Z,49.90
2019-02-11T08:39:56.422Z,50.10
2019-02-11T08:42:23.881Z,50.00
2019-02-11T08:44:51.414Z,49.80
2019-02-11T08:47:19.468Z,49.90
2019-02-11T08:49:47.133Z,49.70
2019-02-11T08:52:14.594Z,49.70
2019-02-11T08:54:42.334Z,49.50
2019-02-11T08:57:09.797Z,49.40
2019-02-11T08:59:37.275Z,49.50
2019-02-11T09:02:04.737Z,49.50
2019-02-11T09:04:32.211Z,49.40
2019-02-11T09:06:59.675Z,49.30
2019-02-11T09:09:27.138Z,49.20
2019-02-11T09:11:54.620Z,49.20
2019-02-11T09:14:22.082Z,49.20
2019-02-11T09:16:49.553Z,49.20
2019-02-11T09:19:17.025Z,49.20
2019-02-11T09:21:44.514Z,49.20
2019-02-11T09:24:11.977Z,49.10
2019-02-11T09:26:39.445Z,49.10
2019-02-11T09:29:06.974Z,49.10
2019-02-11T09:31:34.441Z,49.10
2019-02-11T09:34:01.911Z,49.10
2019-02-11T09:36:29.369Z,49.20
2019-02-11T09:38:56.842Z,49.10
2019-02-11T09:41:24.330Z,49.10
2019-02-11T09:43:51.799Z,49.10
2019-02-11T09:46:19.497Z,49.20
2019-02-11T09:48:46.962Z,49.20
2019-02-11T09:51:14.508Z,49.70
2019-02-11T09:53:41.982Z,49.00
2019-02-11T09:56:09.452Z,49.00
2019-02-11T09:58:38.120Z,49.00
2019-02-11T10:01:05.777Z,49.10
2019-02-11T10:03:33.234Z,49.30
2019-02-11T10:06:00.705Z,49.20
2019-02-11T10:08:28.239Z,49.20
2019-02-11T10:10:55.783Z,49.00
2019-02-11T10:13:23.250Z,49.00
2019-02-11T10:15:50.884Z,49.10
2019-02-11T10:18:18.361Z,49.10
2019-02-11T10:20:45.834Z,49.00
2019-02-11T10:23:13.308Z,49.00
2019-02-11T10:25:40.774Z,48.90
2019-02-11T10:28:09.118Z,48.90
2019-02-11T10:30:36.650Z,49.00
2019-02-11T10:33:04.131Z,48.90
2019-02-11T10:35:31.590Z,49.50
2019-02-11T10:37:59.063Z,48.90
2019-02-11T10:40:26.527Z,48.70
2019-02-11T10:42:54.052Z,48.70
2019-02-11T10:45:21.551Z,48.60
2019-02-11T10:47:49.032Z,48.60
2019-02-11T10:50:17.173Z,48.60
2019-02-11T10:52:44.653Z,48.60
2019-02-11T10:55:13.083Z,48.60
2019-02-11T10:57:40.565Z,48.60
2019-02-11T11:00:09.654Z,48.60
2019-02-11T11:02:37.189Z,48.70
2019-02-11T11:05:06.050Z,48.70
2019-02-11T11:07:33.515Z,48.60
2019-02-11T11:10:00.982Z,48.60
2019-02-11T11:12:28.561Z,48.60
2019-02-11T11:14:56.005Z,48.60
2019-02-11T11:17:23.797Z,48.60
2019-02-11T11:19:51.298Z,48.60
2019-02-11T11:22:18.761Z,48.70
2019-02-11T11:24:46.268Z,48.60
2019-02-11T11:27:13.725Z,48.60
2019-02-11T11:29:41.203Z,48.50
2019-02-11T11:32:08.674Z,48.60
2019-02-11T11:34:36.145Z,48.60
2019-02-11T11:37:03.614Z,48.60
2019-02-11T11:39:31.089Z,48.50
2019-02-11T11:41:58.575Z,48.60
2019-02-11T11:44:26.043Z,48.60
2019-02-11T11:46:53.509Z,48.50
2019-02-11T11:49:20.978Z,48.40
2019-02-11T11:51:48.457Z,48.50
2019-02-11T11:54:15.952Z,48.40
2019-02-11T11:56:43.424Z,48.30
2019-02-11T11:59:10.894Z,48.50
2019-02-11T12:01:38.433Z,48.50
2019-02-11T12:04:06.748Z,48.30
2019-02-11T12:06:34.468Z,48.40
2019-02-11T12:09:01.970Z,48.40
2019-02-11T12:11:29.480Z,48.30
2019-02-11T12:13:57.228Z,48.30
2019-02-11T12:16:24.699Z,48.30
2019-02-11T12:18:52.161Z,48.30
2019-02-11T12:21:19.625Z,48.10
2019-02-11T12:23:47.178Z,48.20
2019-02-11T12:26:14.650Z,48.20
2019-02-11T12:28:42.305Z,48.20
2019-02-11T12:31:09.774Z,48.20
2019-02-11T12:33:37.252Z,48.30
2019-02-11T12:36:04.810Z,48.30
2019-02-11T12:38:32.275Z,48.20
2019-02-11T12:40:59.745Z,48.20
2019-02-11T12:43:27.223Z,48.30
2019-02-11T12:45:54.699Z,48.30
2019-02-11T12:48:22.316Z,48.20
2019-02-11T12:50:49.801Z,48.20
2019-02-11T12:53:17.265Z,48.20
2019-02-11T12:55:44.758Z,48.20
2019-02-11T12:58:12.277Z,48.20
2019-02-11T13:00:39.764Z,48.10
2019-02-11T13:03:07.226Z,48.10
2019-02-11T13:05:44.714Z,48.10
2019-02-11T13:08:03.923Z,48.10
2019-02-11T13:10:31.388Z,48.20
2019-02-11T13:12:59.020Z,48.10
2019-02-11T13:15:56.888Z,48.10
2019-02-11T13:17:55.771Z,48.20
2019-02-11T13:20:23.448Z,48.20
2019-02-11T13:22:50.917Z,48.20
2019-02-11T13:25:18.679Z,48.20
2019-02-11T13:27:46.567Z,48.10
2019-02-11T13:30:21.032Z,48.50
2019-02-11T13:32:48.652Z,48.00
2019-02-11T13:35:16.182Z,48.10
2019-02-11T13:37:43.894Z,48.20
2019-02-11T13:40:11.550Z,48.10
2019-02-11T13:42:39.028Z,48.00
2019-02-11T13:45:08.121Z,48.60
2019-02-11T13:47:52.391Z,48.10
2019-02-11T13:50:05.462Z,48.20
2019-02-11T13:52:32.928Z,48.00
2019-02-11T13:55:00.550Z,48.00
2019-02-11T13:57:28.058Z,47.90
2019-02-11T13:59:55.550Z,47.90
2019-02-11T14:02:23.340Z,48.00
2019-02-11T14:04:50.818Z,47.90
2019-02-11T14:07:18.289Z,47.90
2019-02-11T14:09:45.771Z,47.80
2019-02-11T14:12:13.232Z,47.80
2019-02-11T14:14:40.698Z,47.90
2019-02-11T14:17:08.157Z,47.90
2019-02-11T14:19:35.948Z,48.00
2019-02-11T14:22:03.440Z,47.90
2019-02-11T14:24:30.911Z,47.90
2019-02-11T14:26:58.377Z,47.90
2019-02-11T14:29:25.840Z,47.90
2019-02-11T14:31:53.301Z,47.80
2019-02-11T14:34:20.774Z,47.70
2019-02-11T14:36:48.238Z,47.80
2019-02-11T14:39:15.733Z,47.80
2019-02-11T14:41:43.259Z,47.80
2019-02-11T14:44:13.703Z,47.80
2019-02-11T14:46:39.926Z,47.80
2019-02-11T14:49:07.408Z,48.40
2019-02-11T14:51:34.875Z,47.70
2019-02-11T14:54:02.346Z,47.80
2019-02-11T14:56:29.821Z,47.60
2019-02-11T14:58:57.305Z,47.50
2019-02-11T15:01:24.805Z,47.60
2019-02-11T15:03:52.262Z,47.70
2019-02-11T15:06:19.742Z,47.70
2019-02-11T15:08:47.221Z,47.80
2019-02-11T15:11:14.750Z,47.80
2019-02-11T15:13:42.210Z,47.80
2019-02-11T15:16:09.683Z,47.80
2019-02-11T15:18:37.141Z,47.70
2019-02-11T15:21:04.646Z,47.90
2019-02-11T15:23:32.139Z,48.00
2019-02-11T15:25:59.605Z,48.00
2019-02-11T15:28:27.066Z,47.80
2019-02-11T15:30:54.533Z,47.80
2019-02-11T15:33:22.016Z,47.80
2019-02-11T15:35:49.636Z,47.80
2019-02-11T15:38:17.114Z,47.80
2019-02-11T15:40:44.582Z,47.80
2019-02-11T15:43:12.047Z,47.80
2019-02-11T15:45:39.520Z,47.80
2019-02-11T15:48:06.990Z,47.70
2019-02-11T15:50:34.462Z,47.90
2019-02-11T15:53:01.926Z,47.80
2019-02-11T15:55:29.398Z,47.70
2019-02-11T15:57:56.861Z,47.80
2019-02-11T16:00:24.391Z,47.80
2019-02-11T16:02:52.232Z,47.80
2019-02-11T16:05:19.948Z,47.70
2019-02-11T16:07:47.409Z,47.70
2019-02-11T16:10:15.946Z,47.60
2019-02-11T16:12:43.414Z,47.60
2019-02-11T16:15:11.546Z,47.60
2019-02-11T16:17:39.015Z,47.60
2019-02-11T16:20:07.949Z,47.60
2019-02-11T16:22:35.426Z,47.50
2019-02-11T16:25:02.894Z,47.50
2019-02-11T16:27:30.371Z,47.50
2019-02-11T16:29:57.866Z,47.50
2019-02-11T16:32:25.341Z,47.60
2019-02-11T16:34:52.906Z,47.70
2019-02-11T16:37:20.382Z,47.50
2019-02-11T16:39:47.929Z,47.60
2019-02-11T16:42:15.432Z,47.40
2019-02-11T16:44:42.899Z,47.50
2019-02-11T16:47:10.376Z,47.40
2019-02-11T16:49:37.866Z,47.40
2019-02-11T16:52:05.344Z,47.40
2019-02-11T16:54:32.882Z,47.40
2019-02-11T16:57:00.366Z,48.00
2019-02-11T16:59:27.843Z,47.00
2019-02-11T17:01:56.054Z,47.50
2019-02-11T17:04:23.517Z,47.50
2019-02-11T17:06:50.997Z,47.50
2019-02-11T17:09:18.453Z,47.30
2019-02-11T17:11:45.918Z,47.30
2019-02-11T17:14:13.385Z,47.30
2019-02-11T17:16:40.920Z,47.40
2019-02-11T17:19:09.658Z,47.40
2019-02-11T17:21:37.463Z,47.60
2019-02-11T17:24:04.931Z,47.60
2019-02-11T17:26:32.398Z,47.70
2019-02-11T17:28:59.861Z,47.70
2019-02-11T17:31:27.331Z,47.60
2019-02-11T17:33:54.834Z,47.60
2019-02-11T17:36:22.330Z,47.60
2019-02-11T17:38:49.795Z,48.20
2019-02-11T17:41:17.261Z,47.60
2019-02-11T17:43:44.729Z,47.70
2019-02-11T17:46:12.201Z,47.70
2019-02-11T17:48:39.665Z,47.60
2019-02-11T17:51:07.150Z,47.60
2019-02-11T17:53:34.626Z,47.60
2019-02-11T17:56:02.194Z,47.60
2019-02-11T17:58:29.666Z,47.50
2019-02-11T18:00:58.778Z,47.40
2019-02-11T18:03:26.265Z,47.50
2019-02-11T18:05:53.730Z,47.40
2019-02-11T18:08:21.225Z,47.40
2019-02-11T18:10:48.694Z,47.50
2019-02-11T18:13:16.157Z,47.60
2019-02-11T18:15:43.628Z,47.60
2019-02-11T18:18:11.086Z,47.60
2019-02-11T18:20:38.549Z,47.60
2019-02-11T18:23:06.019Z,47.60
2019-02-11T18:25:33.483Z,47.40
2019-02-11T18:28:00.952Z,47.40
2019-02-11T18:30:28.485Z,47.50
2019-02-11T18:32:55.949Z,48.10
2019-02-11T18:35:23.436Z,47.40
2019-02-11T18:37:50.903Z,47.50
2019-02-11T18:40:18.374Z,47.50
2019-02-11T18:42:46.093Z,47.50
2019-02-11T18:45:14.143Z,47.60
2019-02-11T18:47:41.621Z,47.50
2019-02-11T18:50:15.269Z,47.60
2019-02-11T18:52:42.740Z,47.50
2019-02-11T18:55:11.434Z,47.80
2019-02-11T18:57:38.898Z,47.80
2019-02-11T19:00:08.043Z,47.50
2019-02-11T19:02:35.505Z,47.40
2019-02-11T19:05:02.978Z,48.20
2019-02-11T19:07:30.443Z,47.60
2019-02-11T19:09:57.929Z,47.40
2019-02-11T19:12:25.461Z,47.40
2019-02-11T19:14:52.922Z,47.40
2019-02-11T19:17:20.386Z,47.90
2019-02-11T19:19:47.918Z,48.00
2019-02-11T19:22:15.391Z,48.00
2019-02-11T19:24:42.853Z,48.20
2019-02-11T19:27:10.326Z,48.20
2019-02-11T19:29:37.782Z,48.30
2019-02-11T19:32:05.255Z,48.20
2019-02-11T19:34:32.989Z,48.20
2019-02-11T19:37:00.458Z,48.20
2019-02-11T19:39:27.918Z,48.20
2019-02-11T19:41:55.390Z,48.10
2019-02-11T19:44:22.855Z,48.10
2019-02-11T19:46:50.345Z,48.10
2019-02-11T19:49:17.884Z,48.10
2019-02-11T19:51:45.361Z,48.00
2019-02-11T19:54:12.847Z,48.00
2019-02-11T19:56:40.322Z,48.30
2019-02-11T19:59:07.791Z,48.40
2019-02-11T20:01:35.261Z,48.50
2019-02-11T20:04:07.642Z,48.30
2019-02-11T20:06:33.189Z,48.20
2019-02-11T20:09:00.894Z,48.20
2019-02-11T20:11:28.359Z,48.00
2019-02-11T20:13:55.831Z,47.90
2019-02-11T20:16:23.311Z,48.00
2019-02-11T20:18:50.779Z,48.00
2019-02-11T20:21:18.242Z,47.90
2019-02-11T20:23:45.705Z,47.90
2019-02-11T20:26:13.171Z,48.00
2019-02-11T20:28:40.653Z,48.80
2019-02-11T20:31:08.118Z,48.50
2019-02-11T20:33:35.603Z,48.30
2019-02-11T20:36:03.065Z,48.20
2019-02-11T20:38:30.605Z,48.10
2019-02-11T20:40:58.133Z,48.10
2019-02-11T20:43:25.601Z,48.10
2019-02-11T20:45:53.078Z,48.20
2019-02-11T20:48:20.554Z,48.10
2019-02-11T20:50:48.017Z,48.20
2019-02-11T20:53:15.562Z,48.10
2019-02-11T20:55:43.032Z,48.10
2019-02-11T20:58:10.506Z,48.20
2019-02-11T21:00:37.970Z,48.40
2019-02-11T21:03:08.383Z,48.50
2019-02-11T21:05:34.675Z,48.40
2019-02-11T21:08:02.164Z,48.30
2019-02-11T21:10:29.629Z,48.20
2019-02-11T21:12:57.195Z,48.10
2019-02-11T21:15:24.660Z,48.10
2019-02-11T21:17:52.169Z,48.00
2019-02-11T21:20:21.118Z,47.90
2019-02-11T21:22:48.586Z,47.90
2019-02-11T21:25:16.058Z,47.90
2019-02-11T21:27:43.521Z,48.50
2019-02-11T21:30:11.666Z,48.00
2019-02-11T21:32:39.126Z,48.20
2019-02-11T21:35:07.689Z,48.20
2019-02-11T21:37:35.153Z,48.80
2019-02-11T21:40:02.634Z,48.10
2019-02-11T21:42:30.115Z,48.10
2019-02-11T21:44:57.574Z,48.20
2019-02-11T21:47:25.046Z,48.10
2019-02-11T21:49:52.521Z,48.10
2019-02-11T21:52:19.987Z,48.10
2019-02-11T21:54:47.460Z,48.00
2019-02-11T21:57:14.925Z,48.00
2019-02-11T21:59:42.384Z,48.00
2019-02-11T22:02:09.858Z,48.00
2019-02-11T22:04:37.324Z,48.00
2019-02-11T22:07:04.820Z,48.00
2019-02-11T22:09:32.285Z,48.70
2019-02-11T22:11:59.753Z,48.10
2019-02-11T22:14:27.214Z,48.10
2019-02-11T22:16:54.693Z,48.00
2019-02-11T22:19:22.157Z,47.90
2019-02-11T22:21:49.623Z,48.00
2019-02-11T22:24:17.085Z,47.80
2019-02-11T22:26:44.560Z,47.80
2019-02-11T22:29:12.021Z,47.90
2019-02-11T22:31:39.487Z,47.70
2019-02-11T22:34:06.953Z,47.70
2019-02-11T22:36:34.419Z,47.70
2019-02-11T22:39:01.886Z,47.70
2019-02-11T22:41:29.354Z,47.90
2019-02-11T22:43:56.819Z,48.00
2019-02-11T22:46:24.289Z,47.90
2019-02-11T22:48:51.761Z,47.70
2019-02-11T22:51:19.237Z,47.70
2019-02-11T22:53:46.699Z,47.70
2019-02-11T22:56:14.180Z,47.70
2019-02-11T22:58:41.640Z,47.60
2019-02-11T23:01:09.109Z,47.60
2019-02-11T23:03:36.573Z,47.60
2019-02-11T23:06:04.207Z,47.60
2019-02-11T23:08:31.673Z,47.60
2019-02-11T23:10:59.137Z,47.70
2019-02-11T23:13:26.966Z,47.80
2019-02-11T23:15:54.425Z,47.80
2019-02-11T23:18:21.906Z,47.80
2019-02-11T23:20:52.154Z,47.70
2019-02-11T23:23:18.550Z,47.70
2019-02-11T23:25:46.014Z,47.70
2019-02-11T23:28:13.500Z,47.70
2019-02-11T23:30:40.972Z,47.70
2019-02-11T23:33:08.434Z,47.70
2019-02-11T23:35:35.922Z,47.70
2019-02-11T23:38:03.571Z,47.70
2019-02-11T23:40:31.037Z,47.80
2019-02-11T23:42:59.900Z,47.90
2019-02-11T23:45:27.561Z,47.90
2019-02-11T23:47:55.043Z,47.90
2019-02-11T23:50:22.505Z,47.90
2019-02-11T23:52:49.982Z,47.80
2019-02-11T23:55:17.449Z,48.10
2019-02-11T23:57:44.918Z,48.00
